sensor_id;sensor_type;location;lat;lon;timestamp;pressure;altitude;pressure_sealevel;temperature;humidity
79075;BME280;68476;42.710;23.388;2023-07-13T00:00:38;95796.53;;;19.97;71.05
79075;BME280;68476;42.710;23.388;2023-07-13T00:03:04;95804.81;;;19.97;70.48
79075;BME280;68476;42.710;23.388;2023-07-13T00:05:30;95797.88;;;20.05;70.46
79075;BME280;68476;42.710;23.388;2023-07-13T00:07:56;95806.44;;;20.03;70.89
79075;BME280;68476;42.710;23.388;2023-07-13T00:10:22;95798.16;;;20.03;70.46
79075;BME280;68476;42.710;23.388;2023-07-13T00:12:47;95811.72;;;20.05;71.15
79075;BME280;68476;42.710;23.388;2023-07-13T00:15:20;95811.47;;;19.91;71.48
79075;BME280;68476;42.710;23.388;2023-07-13T00:17:52;95800.47;;;19.75;71.32
79075;BME280;68476;42.710;23.388;2023-07-13T00:20:18;95798.81;;;19.74;72.62
79075;BME280;68476;42.710;23.388;2023-07-13T00:22:43;95798.81;;;19.74;72.12
79075;BME280;68476;42.710;23.388;2023-07-13T00:25:11;95793.50;;;19.83;72.10
79075;BME280;68476;42.710;23.388;2023-07-13T00:27:37;95794.59;;;19.82;71.84
79075;BME280;68476;42.710;23.388;2023-07-13T00:30:03;95785.81;;;19.69;71.80
79075;BME280;68476;42.710;23.388;2023-07-13T00:32:28;95783.38;;;19.58;73.49
79075;BME280;68476;42.710;23.388;2023-07-13T00:34:54;95785.34;;;19.42;74.66
79075;BME280;68476;42.710;23.388;2023-07-13T00:37:20;95781.19;;;19.44;74.37
79075;BME280;68476;42.710;23.388;2023-07-13T00:39:45;95793.94;;;19.40;74.64
79075;BME280;68476;42.710;23.388;2023-07-13T00:42:11;95795.03;;;19.39;74.98
79075;BME280;68476;42.710;23.388;2023-07-13T00:44:37;95796.72;;;19.19;74.93
79075;BME280;68476;42.710;23.388;2023-07-13T00:47:04;95792.03;;;19.04;77.17
79075;BME280;68476;42.710;23.388;2023-07-13T00:49:32;95796.19;;;18.97;77.31
79075;BME280;68476;42.710;23.388;2023-07-13T00:52:05;95791.78;;;19.01;76.90
79075;BME280;68476;42.710;23.388;2023-07-13T00:54:37;95786.81;;;18.98;76.67
79075;BME280;68476;42.710;23.388;2023-07-13T00:57:06;95785.72;;;19.04;76.80
79075;BME280;68476;42.710;23.388;2023-07-13T00:59:34;95793.13;;;19.14;75.92
79075;BME280;68476;42.710;23.388;2023-07-13T01:02:02;95780.72;;;19.06;76.12
79075;BME280;68476;42.710;23.388;2023-07-13T01:04:28;95784.03;;;19.13;75.86
79075;BME280;68476;42.710;23.388;2023-07-13T01:06:53;95783.47;;;19.16;76.01
79075;BME280;68476;42.710;23.388;2023-07-13T01:09:20;95785.09;;;19.17;75.36
79075;BME280;68476;42.710;23.388;2023-07-13T01:11:46;95786.19;;;19.32;74.34
79075;BME280;68476;42.710;23.388;2023-07-13T01:14:13;95785.66;;;19.24;73.56
79075;BME280;68476;42.710;23.388;2023-07-13T01:16:40;95770.22;;;19.13;73.09
79075;BME280;68476;42.710;23.388;2023-07-13T01:19:39;95780.44;;;19.18;72.77
79075;BME280;68476;42.710;23.388;2023-07-13T01:22:10;95776.56;;;19.19;73.43
79075;BME280;68476;42.710;23.388;2023-07-13T01:24:40;95754.78;;;19.02;73.19
79075;BME280;68476;42.710;23.388;2023-07-13T01:27:08;95780.72;;;19.01;76.09
79075;BME280;68476;42.710;23.388;2023-07-13T01:29:35;95784.56;;;18.89;76.81
79075;BME280;68476;42.710;23.388;2023-07-13T01:32:13;95778.50;;;18.67;79.06
79075;BME280;68476;42.710;23.388;2023-07-13T01:34:39;95784.84;;;18.57;80.69
79075;BME280;68476;42.710;23.388;2023-07-13T01:37:08;95784.84;;;18.52;80.46
79075;BME280;68476;42.710;23.388;2023-07-13T01:39:33;95792.00;;;18.58;80.24
79075;BME280;68476;42.710;23.388;2023-07-13T01:41:59;95797.78;;;18.30;81.93
79075;BME280;68476;42.710;23.388;2023-07-13T01:44:25;95786.63;;;17.94;83.02
79075;BME280;68476;42.710;23.388;2023-07-13T01:46:51;95785.47;;;17.80;83.98
79075;BME280;68476;42.710;23.388;2023-07-13T01:49:16;95774.47;;;17.85;83.72
79075;BME280;68476;42.710;23.388;2023-07-13T01:51:41;95775.38;;;18.01;82.46
79075;BME280;68476;42.710;23.388;2023-07-13T01:54:07;95779.53;;;18.09;83.92
79075;BME280;68476;42.710;23.388;2023-07-13T01:56:32;95781.78;;;18.22;82.78
79075;BME280;68476;42.710;23.388;2023-07-13T01:58:58;95775.69;;;18.36;81.93
79075;BME280;68476;42.710;23.388;2023-07-13T02:01:23;95781.22;;;18.36;82.29
79075;BME280;68476;42.710;23.388;2023-07-13T02:03:48;95787.31;;;18.43;82.30
79075;BME280;68476;42.710;23.388;2023-07-13T02:06:14;95795.84;;;18.31;83.01
79075;BME280;68476;42.710;23.388;2023-07-13T02:08:40;95794.47;;;18.28;83.34
79075;BME280;68476;42.710;23.388;2023-07-13T02:11:06;95793.66;;;18.43;81.54
79075;BME280;68476;42.710;23.388;2023-07-13T02:13:32;95786.72;;;18.36;83.46
79075;BME280;68476;42.710;23.388;2023-07-13T02:15:57;95786.19;;;18.39;82.66
79075;BME280;68476;42.710;23.388;2023-07-13T02:18:22;95790.06;;;18.48;81.38
79075;BME280;68476;42.710;23.388;2023-07-13T02:20:48;95791.16;;;18.37;81.51
79075;BME280;68476;42.710;23.388;2023-07-13T02:23:13;95790.63;;;18.45;82.47
79075;BME280;68476;42.710;23.388;2023-07-13T02:25:39;95793.63;;;18.33;82.54
79075;BME280;68476;42.710;23.388;2023-07-13T02:28:04;95799.16;;;18.33;82.94
79075;BME280;68476;42.710;23.388;2023-07-13T02:30:30;95802.72;;;18.28;83.05
79075;BME280;68476;42.710;23.388;2023-07-13T02:32:56;95787.81;;;18.24;83.54
79075;BME280;68476;42.710;23.388;2023-07-13T02:35:22;95808.78;;;18.25;82.24
79075;BME280;68476;42.710;23.388;2023-07-13T02:37:48;95807.69;;;18.26;82.91
79075;BME280;68476;42.710;23.388;2023-07-13T02:40:13;95808.22;;;18.18;82.71
79075;BME280;68476;42.710;23.388;2023-07-13T02:42:39;95798.84;;;18.19;83.60
79075;BME280;68476;42.710;23.388;2023-07-13T02:45:07;95802.19;;;18.21;83.25
79075;BME280;68476;42.710;23.388;2023-07-13T02:47:33;95812.91;;;18.17;83.26
79075;BME280;68476;42.710;23.388;2023-07-13T02:49:58;95803.25;;;18.10;82.71
79075;BME280;68476;42.710;23.388;2023-07-13T02:52:24;95814.94;;;17.74;83.24
79075;BME280;68476;42.710;23.388;2023-07-13T02:54:50;95817.97;;;17.73;83.73
79075;BME280;68476;42.710;23.388;2023-07-13T02:57:15;95812.66;;;17.55;83.25
79075;BME280;68476;42.710;23.388;2023-07-13T02:59:41;95810.94;;;17.49;84.12
79075;BME280;68476;42.710;23.388;2023-07-13T03:02:06;95806.84;;;17.52;83.97
79075;BME280;68476;42.710;23.388;2023-07-13T03:04:31;95810.72;;;17.56;83.49
79075;BME280;68476;42.710;23.388;2023-07-13T03:06:57;95815.13;;;17.52;84.07
79075;BME280;68476;42.710;23.388;2023-07-13T03:09:24;95819.19;;;17.44;83.80
79075;BME280;68476;42.710;23.388;2023-07-13T03:11:53;95815.00;;;17.36;84.24
79075;BME280;68476;42.710;23.388;2023-07-13T03:14:19;95827.47;;;17.44;83.66
79075;BME280;68476;42.710;23.388;2023-07-13T03:16:44;95818.34;;;17.38;84.81
79075;BME280;68476;42.710;23.388;2023-07-13T03:19:10;95822.53;;;17.51;84.35
79075;BME280;68476;42.710;23.388;2023-07-13T03:21:35;95808.00;;;17.66;83.80
79075;BME280;68476;42.710;23.388;2023-07-13T03:24:00;95814.69;;;17.81;82.43
79075;BME280;68476;42.710;23.388;2023-07-13T03:26:26;95822.41;;;17.84;83.62
79075;BME280;68476;42.710;23.388;2023-07-13T03:28:51;95829.13;;;17.98;82.46
79075;BME280;68476;42.710;23.388;2023-07-13T03:31:19;95824.47;;;18.04;81.97
79075;BME280;68476;42.710;23.388;2023-07-13T03:33:45;95823.66;;;18.14;81.63
79075;BME280;68476;42.710;23.388;2023-07-13T03:36:20;95825.31;;;18.15;82.22
79075;BME280;68476;42.710;23.388;2023-07-13T03:38:52;95825.00;;;18.06;82.57
79075;BME280;68476;42.710;23.388;2023-07-13T03:41:18;95811.16;;;17.96;84.06
79075;BME280;68476;42.710;23.388;2023-07-13T03:43:44;95826.41;;;18.09;84.59
79075;BME280;68476;42.710;23.388;2023-07-13T03:46:09;95820.91;;;18.19;84.46
79075;BME280;68476;42.710;23.388;2023-07-13T03:48:35;95828.91;;;18.21;84.70
79075;BME280;68476;42.710;23.388;2023-07-13T03:51:01;95824.25;;;18.31;83.11
79075;BME280;68476;42.710;23.388;2023-07-13T03:53:27;95829.81;;;18.52;82.12
79075;BME280;68476;42.710;23.388;2023-07-13T03:55:52;95824.03;;;18.69;80.65
79075;BME280;68476;42.710;23.388;2023-07-13T03:58:32;95821.03;;;18.81;79.48
79075;BME280;68476;42.710;23.388;2023-07-13T04:00:59;95824.34;;;18.93;78.96
79075;BME280;68476;42.710;23.388;2023-07-13T04:03:25;95827.09;;;18.88;78.56
79075;BME280;68476;42.710;23.388;2023-07-13T04:05:53;95828.78;;;19.00;78.35
79075;BME280;68476;42.710;23.388;2023-07-13T04:08:19;95834.28;;;19.10;78.09
79075;BME280;68476;42.710;23.388;2023-07-13T04:10:44;95823.75;;;18.55;80.98
79075;BME280;68476;42.710;23.388;2023-07-13T04:13:09;95832.63;;;18.88;79.61
79075;BME280;68476;42.710;23.388;2023-07-13T04:15:35;95833.72;;;18.92;80.24
79075;BME280;68476;42.710;23.388;2023-07-13T04:18:00;95834.56;;;19.03;79.71
79075;BME280;68476;42.710;23.388;2023-07-13T04:20:26;95830.41;;;19.21;78.18
79075;BME280;68476;42.710;23.388;2023-07-13T04:22:52;95822.34;;;19.51;76.39
79075;BME280;68476;42.710;23.388;2023-07-13T04:25:19;95828.41;;;19.63;75.31
79075;BME280;68476;42.710;23.388;2023-07-13T04:27:44;95828.63;;;19.77;74.23
79075;BME280;68476;42.710;23.388;2023-07-13T04:30:10;95842.16;;;19.94;74.51
79075;BME280;68476;42.710;23.388;2023-07-13T04:32:35;95845.75;;;19.90;75.14
79075;BME280;68476;42.710;23.388;2023-07-13T04:35:01;95846.56;;;19.95;74.56
79075;BME280;68476;42.710;23.388;2023-07-13T04:37:26;95844.63;;;20.01;74.39
79075;BME280;68476;42.710;23.388;2023-07-13T04:39:52;95842.94;;;20.10;73.24
79075;BME280;68476;42.710;23.388;2023-07-13T04:42:18;95846.47;;;20.21;72.65
79075;BME280;68476;42.710;23.388;2023-07-13T04:44:50;95842.00;;;20.30;72.81
79075;BME280;68476;42.710;23.388;2023-07-13T04:47:16;95840.81;;;20.42;72.61
79075;BME280;68476;42.710;23.388;2023-07-13T04:49:42;95844.66;;;20.51;72.81
79075;BME280;68476;42.710;23.388;2023-07-13T04:52:07;95854.56;;;20.62;72.54
79075;BME280;68476;42.710;23.388;2023-07-13T04:54:33;95851.72;;;20.73;72.08
79075;BME280;68476;42.710;23.388;2023-07-13T04:56:59;95851.91;;;20.42;73.63
79075;BME280;68476;42.710;23.388;2023-07-13T04:59:25;95853.56;;;20.43;73.37
79075;BME280;68476;42.710;23.388;2023-07-13T05:01:50;95857.66;;;20.56;73.25
79075;BME280;68476;42.710;23.388;2023-07-13T05:04:16;95860.38;;;20.61;72.56
79075;BME280;68476;42.710;23.388;2023-07-13T05:06:41;95865.22;;;20.90;70.89
79075;BME280;68476;42.710;23.388;2023-07-13T05:09:07;95862.13;;;20.97;71.58
79075;BME280;68476;42.710;23.388;2023-07-13T05:11:33;95862.75;;;21.18;70.97
79075;BME280;68476;42.710;23.388;2023-07-13T05:13:58;95864.31;;;21.29;70.76
79075;BME280;68476;42.710;23.388;2023-07-13T05:16:24;95862.16;;;21.26;70.92
79075;BME280;68476;42.710;23.388;2023-07-13T05:18:49;95862.75;;;21.52;69.16
79075;BME280;68476;42.710;23.388;2023-07-13T05:21:14;95861.50;;;21.69;67.86
79075;BME280;68476;42.710;23.388;2023-07-13T05:23:40;95860.94;;;21.37;68.67
79075;BME280;68476;42.710;23.388;2023-07-13T05:26:07;95855.59;;;21.76;66.57
79075;BME280;68476;42.710;23.388;2023-07-13T05:28:32;95860.19;;;21.61;66.66
79075;BME280;68476;42.710;23.388;2023-07-13T05:30:58;95857.50;;;22.05;65.51
79075;BME280;68476;42.710;23.388;2023-07-13T05:33:24;95855.16;;;22.36;65.04
79075;BME280;68476;42.710;23.388;2023-07-13T05:35:50;95859.28;;;22.39;64.43
79075;BME280;68476;42.710;23.388;2023-07-13T05:38:16;95863.84;;;22.29;65.92
79075;BME280;68476;42.710;23.388;2023-07-13T05:40:46;95872.50;;;22.28;66.17
79075;BME280;68476;42.710;23.388;2023-07-13T05:43:12;95867.22;;;22.70;64.16
79075;BME280;68476;42.710;23.388;2023-07-13T05:45:37;95865.56;;;23.07;62.79
79075;BME280;68476;42.710;23.388;2023-07-13T05:48:03;95866.09;;;22.90;64.97
79075;BME280;68476;42.710;23.388;2023-07-13T05:50:28;95862.41;;;22.94;63.21
79075;BME280;68476;42.710;23.388;2023-07-13T05:52:54;95860.75;;;23.13;62.44
79075;BME280;68476;42.710;23.388;2023-07-13T05:55:20;95866.94;;;22.90;62.64
79075;BME280;68476;42.710;23.388;2023-07-13T05:57:45;95861.47;;;23.18;62.44
79075;BME280;68476;42.710;23.388;2023-07-13T06:00:11;95849.34;;;23.14;61.26
79075;BME280;68476;42.710;23.388;2023-07-13T06:02:37;95854.41;;;23.45;60.55
79075;BME280;68476;42.710;23.388;2023-07-13T06:05:02;95849.09;;;23.63;60.31
79075;BME280;68476;42.710;23.388;2023-07-13T06:07:28;95857.41;;;23.96;58.56
79075;BME280;68476;42.710;23.388;2023-07-13T06:09:53;95857.91;;;24.40;57.35
79075;BME280;68476;42.710;23.388;2023-07-13T06:12:18;95855.91;;;24.54;56.89
79075;BME280;68476;42.710;23.388;2023-07-13T06:14:44;95856.94;;;24.58;56.04
79075;BME280;68476;42.710;23.388;2023-07-13T06:17:09;95860.88;;;24.71;55.92
79075;BME280;68476;42.710;23.388;2023-07-13T06:19:35;95860.56;;;24.59;55.29
79075;BME280;68476;42.710;23.388;2023-07-13T06:22:00;95854.25;;;24.67;55.11
79075;BME280;68476;42.710;23.388;2023-07-13T06:24:26;95852.41;;;24.76;54.06
79075;BME280;68476;42.710;23.388;2023-07-13T06:26:52;95865.81;;;25.11;53.66
79075;BME280;68476;42.710;23.388;2023-07-13T06:29:17;95859.50;;;25.19;52.25
79075;BME280;68476;42.710;23.388;2023-07-13T06:31:42;95855.34;;;25.17;51.43
79075;BME280;68476;42.710;23.388;2023-07-13T06:34:08;95858.06;;;25.45;51.04
79075;BME280;68476;42.710;23.388;2023-07-13T06:36:33;95855.50;;;25.12;52.26
79075;BME280;68476;42.710;23.388;2023-07-13T06:38:59;95856.38;;;25.21;52.14
79075;BME280;68476;42.710;23.388;2023-07-13T06:41:24;95849.78;;;25.39;51.61
79075;BME280;68476;42.710;23.388;2023-07-13T06:43:53;95851.66;;;25.76;50.31
79075;BME280;68476;42.710;23.388;2023-07-13T06:46:23;95846.69;;;25.64;52.24
79075;BME280;68476;42.710;23.388;2023-07-13T06:48:49;95846.50;;;25.60;52.85
79075;BME280;68476;42.710;23.388;2023-07-13T06:51:14;95848.50;;;25.68;51.23
79075;BME280;68476;42.710;23.388;2023-07-13T06:53:40;95834.78;;;25.81;50.62
79075;BME280;68476;42.710;23.388;2023-07-13T06:56:05;95846.81;;;25.90;49.38
79075;BME280;68476;42.710;23.388;2023-07-13T06:58:33;95847.94;;;25.89;49.19
79075;BME280;68476;42.710;23.388;2023-07-13T07:00:59;95852.13;;;26.41;48.20
79075;BME280;68476;42.710;23.388;2023-07-13T07:03:24;95839.50;;;26.52;47.36
79075;BME280;68476;42.710;23.388;2023-07-13T07:05:50;95852.72;;;26.20;47.86
79075;BME280;68476;42.710;23.388;2023-07-13T07:08:15;95853.69;;;26.73;46.97
79075;BME280;68476;42.710;23.388;2023-07-13T07:10:41;95842.31;;;26.70;46.92
79075;BME280;68476;42.710;23.388;2023-07-13T07:13:07;95832.78;;;26.71;46.89
79075;BME280;68476;42.710;23.388;2023-07-13T07:15:34;95837.91;;;26.86;46.74
79075;BME280;68476;42.710;23.388;2023-07-13T07:18:00;95841.38;;;27.27;45.47
79075;BME280;68476;42.710;23.388;2023-07-13T07:20:25;95833.47;;;27.20;45.54
79075;BME280;68476;42.710;23.388;2023-07-13T07:22:52;95829.84;;;27.29;44.67
79075;BME280;68476;42.710;23.388;2023-07-13T07:25:17;95829.00;;;27.63;43.80
79075;BME280;68476;42.710;23.388;2023-07-13T07:27:43;95842.66;;;27.65;43.57
79075;BME280;68476;42.710;23.388;2023-07-13T07:30:09;95832.50;;;27.16;44.15
79075;BME280;68476;42.710;23.388;2023-07-13T07:32:34;95826.09;;;26.98;45.04
79075;BME280;68476;42.710;23.388;2023-07-13T07:34:59;95816.03;;;27.23;44.17
79075;BME280;68476;42.710;23.388;2023-07-13T07:37:25;95818.78;;;27.41;43.42
79075;BME280;68476;42.710;23.388;2023-07-13T07:39:50;95818.81;;;27.59;43.25
79075;BME280;68476;42.710;23.388;2023-07-13T07:42:16;95811.28;;;27.89;42.48
79075;BME280;68476;42.710;23.388;2023-07-13T07:44:42;95821.22;;;28.25;42.15
79075;BME280;68476;42.710;23.388;2023-07-13T07:47:08;95818.91;;;28.27;42.18
79075;BME280;68476;42.710;23.388;2023-07-13T07:49:35;95807.34;;;28.29;41.14
79075;BME280;68476;42.710;23.388;2023-07-13T07:52:03;95811.13;;;28.33;41.46
79075;BME280;68476;42.710;23.388;2023-07-13T07:54:29;95804.72;;;28.54;41.09
79075;BME280;68476;42.710;23.388;2023-07-13T07:56:54;95799.91;;;28.33;41.90
79075;BME280;68476;42.710;23.388;2023-07-13T07:59:20;95800.47;;;28.48;38.74
79075;BME280;68476;42.710;23.388;2023-07-13T08:01:45;95801.53;;;28.64;39.92
79075;BME280;68476;42.710;23.388;2023-07-13T08:04:13;95804.63;;;28.11;39.27
79075;BME280;68476;42.710;23.388;2023-07-13T08:06:38;95795.75;;;28.39;39.79
79075;BME280;68476;42.710;23.388;2023-07-13T08:09:03;95792.59;;;28.41;40.10
79075;BME280;68476;42.710;23.388;2023-07-13T08:11:30;95786.19;;;28.40;39.99
79075;BME280;68476;42.710;23.388;2023-07-13T08:13:55;95786.22;;;28.32;39.55
79075;BME280;68476;42.710;23.388;2023-07-13T08:16:22;95783.84;;;29.15;38.55
79075;BME280;68476;42.710;23.388;2023-07-13T08:18:47;95790.47;;;29.77;37.33
79075;BME280;68476;42.710;23.388;2023-07-13T08:21:13;95780.34;;;29.97;37.33
79075;BME280;68476;42.710;23.388;2023-07-13T08:23:38;95777.88;;;30.08;37.12
79075;BME280;68476;42.710;23.388;2023-07-13T08:26:04;95778.72;;;30.21;37.10
79075;BME280;68476;42.710;23.388;2023-07-13T08:28:30;95769.25;;;29.67;38.18
79075;BME280;68476;42.710;23.388;2023-07-13T08:31:00;95768.22;;;30.84;36.60
79075;BME280;68476;42.710;23.388;2023-07-13T08:33:26;95765.06;;;30.73;36.00
79075;BME280;68476;42.710;23.388;2023-07-13T08:35:51;95758.28;;;31.15;35.90
79075;BME280;68476;42.710;23.388;2023-07-13T08:38:17;95756.63;;;30.73;36.58
79075;BME280;68476;42.710;23.388;2023-07-13T08:40:44;95756.44;;;30.28;37.75
79075;BME280;68476;42.710;23.388;2023-07-13T08:43:16;95756.28;;;30.74;36.26
79075;BME280;68476;42.710;23.388;2023-07-13T08:45:52;95759.63;;;30.93;35.65
79075;BME280;68476;42.710;23.388;2023-07-13T08:48:36;95763.03;;;30.08;37.32
79075;BME280;68476;42.710;23.388;2023-07-13T08:53:49;95760.91;;;30.95;36.12
79075;BME280;68476;42.710;23.388;2023-07-13T08:56:19;95762.31;;;31.30;35.66
79075;BME280;68476;42.710;23.388;2023-07-13T08:58:53;95764.69;;;30.87;36.21
79075;BME280;68476;42.710;23.388;2023-07-13T09:15:32;95788.16;;;32.08;36.16
79075;BME280;68476;42.710;23.388;2023-07-13T09:18:10;95784.13;;;31.77;36.90
79075;BME280;68476;42.710;23.388;2023-07-13T09:20:51;95774.97;;;31.96;36.28
79075;BME280;68476;42.710;23.388;2023-07-13T09:23:23;95774.22;;;32.16;36.64
79075;BME280;68476;42.710;23.388;2023-07-13T09:25:54;95780.56;;;32.61;36.60
79075;BME280;68476;42.710;23.388;2023-07-13T09:28:26;95785.38;;;32.60;36.09
79075;BME280;68476;42.710;23.388;2023-07-13T09:31:04;95774.09;;;31.64;37.93
79075;BME280;68476;42.710;23.388;2023-07-13T09:33:34;95781.16;;;32.70;36.38
79075;BME280;68476;42.710;23.388;2023-07-13T09:36:00;95773.59;;;31.74;37.62
79075;BME280;68476;42.710;23.388;2023-07-13T09:38:29;95777.88;;;31.84;37.56
79075;BME280;68476;42.710;23.388;2023-07-13T09:44:01;95765.28;;;32.62;36.01
79075;BME280;68476;42.710;23.388;2023-07-13T09:46:26;95759.97;;;32.08;36.61
79075;BME280;68476;42.710;23.388;2023-07-13T09:48:52;95749.31;;;33.05;34.50
79075;BME280;68476;42.710;23.388;2023-07-13T09:51:18;95756.75;;;32.42;36.27
79075;BME280;68476;42.710;23.388;2023-07-13T09:53:43;95744.88;;;32.17;35.48
79075;BME280;68476;42.710;23.388;2023-07-13T09:56:29;95739.19;;;33.24;34.37
79075;BME280;68476;42.710;23.388;2023-07-13T09:58:59;95742.59;;;33.53;32.90
79075;BME280;68476;42.710;23.388;2023-07-13T10:01:33;95736.75;;;33.22;33.52
79075;BME280;68476;42.710;23.388;2023-07-13T10:03:59;95738.81;;;33.88;33.55
79075;BME280;68476;42.710;23.388;2023-07-13T10:06:25;95735.41;;;34.02;33.73
79075;BME280;68476;42.710;23.388;2023-07-13T10:08:56;95735.97;;;34.38;32.57
79075;BME280;68476;42.710;23.388;2023-07-13T10:11:24;95727.69;;;33.99;33.17
79075;BME280;68476;42.710;23.388;2023-07-13T10:13:53;95723.03;;;34.10;32.87
79075;BME280;68476;42.710;23.388;2023-07-13T10:16:21;95721.97;;;34.45;31.64
79075;BME280;68476;42.710;23.388;2023-07-13T10:18:49;95717.88;;;34.42;33.40
79075;BME280;68476;42.710;23.388;2023-07-13T10:21:22;95710.53;;;34.38;31.73
79075;BME280;68476;42.710;23.388;2023-07-13T10:24:19;95709.44;;;35.41;30.92
79075;BME280;68476;42.710;23.388;2023-07-13T10:27:00;95706.88;;;35.63;30.44
79075;BME280;68476;42.710;23.388;2023-07-13T10:29:26;95707.44;;;35.42;30.75
79075;BME280;68476;42.710;23.388;2023-07-13T10:31:52;95705.59;;;35.98;29.14
79075;BME280;68476;42.710;23.388;2023-07-13T10:34:17;95703.81;;;36.28;28.99
79075;BME280;68476;42.710;23.388;2023-07-13T10:36:45;95699.56;;;36.03;28.60
79075;BME280;68476;42.710;23.388;2023-07-13T10:39:27;95703.50;;;35.91;28.47
79075;BME280;68476;42.710;23.388;2023-07-13T10:42:25;95698.72;;;36.51;27.38
79075;BME280;68476;42.710;23.388;2023-07-13T10:44:52;95696.81;;;38.13;25.88
79075;BME280;68476;42.710;23.388;2023-07-13T10:47:17;95686.50;;;40.29;23.53
79075;BME280;68476;42.710;23.388;2023-07-13T10:49:44;95680.56;;;40.51;22.72
79075;BME280;68476;42.710;23.388;2023-07-13T10:52:42;95669.13;;;39.49;22.63
79075;BME280;68476;42.710;23.388;2023-07-13T10:58:14;95657.69;;;41.82;19.82
79075;BME280;68476;42.710;23.388;2023-07-13T11:00:47;95657.44;;;40.80;17.77
79075;BME280;68476;42.710;23.388;2023-07-13T11:03:16;95644.50;;;41.06;16.73
79075;BME280;68476;42.710;23.388;2023-07-13T11:05:43;95663.28;;;41.35;16.19
79075;BME280;68476;42.710;23.388;2023-07-13T11:10:54;95643.94;;;39.44;16.35
79075;BME280;68476;42.710;23.388;2023-07-13T11:16:45;95640.97;;;39.58;16.46
79075;BME280;68476;42.710;23.388;2023-07-13T11:24:53;95622.28;;;40.06;15.70
79075;BME280;68476;42.710;23.388;2023-07-13T11:30:18;95626.50;;;40.75;14.88
79075;BME280;68476;42.710;23.388;2023-07-13T11:32:50;95623.19;;;41.11;14.26
79075;BME280;68476;42.710;23.388;2023-07-13T11:35:26;95617.13;;;41.64;14.24
79075;BME280;68476;42.710;23.388;2023-07-13T11:37:51;95611.00;;;41.07;15.48
79075;BME280;68476;42.710;23.388;2023-07-13T11:40:26;95607.72;;;41.05;14.91
79075;BME280;68476;42.710;23.388;2023-07-13T11:43:01;95613.25;;;42.01;14.57
79075;BME280;68476;42.710;23.388;2023-07-13T11:45:26;95605.38;;;43.50;13.38
79075;BME280;68476;42.710;23.388;2023-07-13T11:47:53;95607.75;;;42.78;13.52
79075;BME280;68476;42.710;23.388;2023-07-13T11:50:21;95603.69;;;42.56;14.15
79075;BME280;68476;42.710;23.388;2023-07-13T11:52:49;95601.75;;;40.61;15.26
79075;BME280;68476;42.710;23.388;2023-07-13T11:55:18;95606.59;;;40.29;15.41
79075;BME280;68476;42.710;23.388;2023-07-13T11:57:49;95594.63;;;41.38;14.75
79075;BME280;68476;42.710;23.388;2023-07-13T12:00:20;95598.56;;;41.76;14.75
79075;BME280;68476;42.710;23.388;2023-07-13T12:02:51;95583.16;;;43.18;13.30
79075;BME280;68476;42.710;23.388;2023-07-13T12:05:19;95585.56;;;42.83;14.33
79075;BME280;68476;42.710;23.388;2023-07-13T12:07:51;95550.78;;;43.87;13.42
79075;BME280;68476;42.710;23.388;2023-07-13T12:10:27;95580.34;;;42.13;15.35
79075;BME280;68476;42.710;23.388;2023-07-13T12:13:12;95577.81;;;41.95;14.81
79075;BME280;68476;42.710;23.388;2023-07-13T12:15:44;95560.75;;;43.13;14.60
79075;BME280;68476;42.710;23.388;2023-07-13T12:18:34;95537.69;;;43.36;14.13
79075;BME280;68476;42.710;23.388;2023-07-13T12:21:10;95549.19;;;43.36;14.43
79075;BME280;68476;42.710;23.388;2023-07-13T12:23:39;95553.16;;;44.68;13.40
79075;BME280;68476;42.710;23.388;2023-07-13T12:26:09;95543.28;;;46.68;12.12
79075;BME280;68476;42.710;23.388;2023-07-13T12:31:49;95540.19;;;41.18;16.50
79075;BME280;68476;42.710;23.388;2023-07-13T12:34:17;95535.81;;;45.27;13.58
79075;BME280;68476;42.710;23.388;2023-07-13T12:36:52;95534.66;;;41.35;16.68
79075;BME280;68476;42.710;23.388;2023-07-13T12:39:45;95535.66;;;41.48;15.47
79075;BME280;68476;42.710;23.388;2023-07-13T12:42:24;95531.13;;;44.48;13.59
79075;BME280;68476;42.710;23.388;2023-07-13T12:45:01;95521.16;;;43.07;14.13
79075;BME280;68476;42.710;23.388;2023-07-13T12:47:27;95523.19;;;42.70;14.06
79075;BME280;68476;42.710;23.388;2023-07-13T12:50:15;95517.97;;;41.57;15.03
79075;BME280;68476;42.710;23.388;2023-07-13T12:52:44;95524.00;;;42.10;15.82
79075;BME280;68476;42.710;23.388;2023-07-13T12:55:19;95482.34;;;40.52;16.75
79075;BME280;68476;42.710;23.388;2023-07-13T12:57:53;95511.50;;;44.00;14.27
79075;BME280;68476;42.710;23.388;2023-07-13T13:02:51;95511.28;;;42.11;15.47
79075;BME280;68476;42.710;23.388;2023-07-13T13:05:27;95498.44;;;41.76;15.17
79075;BME280;68476;42.710;23.388;2023-07-13T13:07:53;95492.75;;;40.97;16.41
79075;BME280;68476;42.710;23.388;2023-07-13T13:10:19;95492.28;;;41.53;15.37
79075;BME280;68476;42.710;23.388;2023-07-13T13:12:46;95482.41;;;42.83;15.34
79075;BME280;68476;42.710;23.388;2023-07-13T13:15:11;95493.25;;;42.55;15.31
79075;BME280;68476;42.710;23.388;2023-07-13T13:17:37;95480.19;;;41.89;14.59
79075;BME280;68476;42.710;23.388;2023-07-13T13:20:20;95485.13;;;41.89;15.22
79075;BME280;68476;42.710;23.388;2023-07-13T13:22:49;95494.81;;;41.71;15.14
79075;BME280;68476;42.710;23.388;2023-07-13T13:25:15;95480.38;;;42.63;13.75
79075;BME280;68476;42.710;23.388;2023-07-13T13:27:41;95479.94;;;44.30;13.10
79075;BME280;68476;42.710;23.388;2023-07-13T13:30:14;95472.66;;;40.77;15.78
79075;BME280;68476;42.710;23.388;2023-07-13T13:32:45;95465.94;;;40.60;16.12
79075;BME280;68476;42.710;23.388;2023-07-13T13:35:19;95476.41;;;40.97;15.53
79075;BME280;68476;42.710;23.388;2023-07-13T13:37:46;95474.78;;;40.69;15.38